PILOTS ONLINE: 302    ATC ONLINE: 56

KHND

Henderson Executive Airport

Location

City Las Vegas
Country  United States
Latitude 35° 58' 22" N
Longitude 115° 8' 2" W
Elevation 2492 ft
Type Small Airport

Map

Weather

METAR
2014/10/22 00:56
KHND 220056Z AUTO 24009KT 10SM CLR 27/M06 A2984 RMK AO2 TSNO T02661061 SLP086
TAF
2014/10/21 20:27
TAF 
      AMD KHND 212025Z 2120/2218 21012G20KT P6SM FEW250 
     FM220400 17008KT P6SM FEW250

Runways

17L/35R 5001 ft / 75 ft
17R/35L 6501 ft / 100 ft

Outbound flights

Callsign Flying to Pilot ATD/STD ETA Aircraft

Inbound flights

Callsign Flying from Pilot ATD ETA Aircraft
TB-18  KGCN - Grand Canyon
United States
Tarcisio villar villar
991358
00:49 00:49 F14